Time;durP1;ratioP1;P1;durP2;ratioP2;P2;SDS_P1;SDS_P2;PMS_P1;PMS_P2;Temp;Humidity;BMP_temperature;BMP_pressure;BME280_temperature;BME280_humidity;BME280_pressure;Samples;Min_cycle;Max_cycle;Signal;HPM_P1;HPM_P2
2022/07/30 00:00:47;;;;;;;;;;;;;;;24.63;60.59;153848.58;1714464;83;20169;-59
2022/07/30 00:03:15;;;;;;;;;;;;;;;24.63;60.15;153848.58;1714762;83;20204;-60
2022/07/30 00:05:42;;;;;;;;;;;;;;;24.59;60.04;153839.44;1701890;83;21255;-59
2022/07/30 00:08:09;;;;;;;;;;;;;;;24.53;60.11;153825.03;1725117;82;20282;-59
2022/07/30 00:10:35;;;;;;;;;;;;;;;24.51;60.10;153819.78;1729196;81;20178;-60
2022/07/30 00:13:02;;;;;;;;;;;;;;;24.51;60.03;153819.78;1755085;81;20190;-59
2022/07/30 00:15:31;;;;;;;;;;;;;;;24.51;59.94;153819.78;1755391;81;20138;-59
2022/07/30 00:17:58;;;;;;;;;;;;;;;24.50;59.67;153817.17;1746738;81;21194;-59
2022/07/30 00:20:27;;;;;;;;;;;;;;;24.46;59.97;153807.98;1771580;80;20132;-76
2022/07/30 00:22:55;;;;;;;;;;;;;;;24.42;59.08;153796.19;1771665;80;20180;-77
2022/07/30 00:25:24;;;;;;;;;;;;;;;24.39;59.12;153788.34;1771524;80;20176;-77
2022/07/30 00:27:50;;;;;;;;;;;;;;;24.41;58.95;153793.56;1771674;81;20458;-77
2022/07/30 00:30:17;;;;;;;;;;;;;;;24.42;58.10;153796.19;1771592;81;21137;-77
2022/07/30 00:32:45;;;;;;;;;;;;;;;24.42;57.60;153796.19;1771269;80;20167;-77
2022/07/30 00:35:12;;;;;;;;;;;;;;;24.45;57.11;153804.09;1771544;81;20481;-60
2022/07/30 00:37:39;;;;;;;;;;;;;;;24.49;56.54;153813.22;1743678;81;20620;-60
2022/07/30 00:40:08;;;;;;;;;;;;;;;24.48;56.47;153811.94;1741109;81;20087;-60
2022/07/30 00:42:38;;;;;;;;;;;;;;;24.47;56.20;153809.33;1740892;81;20650;-60
2022/07/30 00:45:06;;;;;;;;;;;;;;;24.47;55.85;153809.33;1770749;80;20100;-59
2022/07/30 00:47:33;;;;;;;;;;;;;;;24.48;55.54;153810.61;1771514;80;20219;-59
2022/07/30 00:50:03;;;;;;;;;;;;;;;24.48;55.01;153811.94;1771003;81;20184;-60
2022/07/30 00:52:31;;;;;;;;;;;;;;;24.49;54.88;153814.56;1771218;81;20211;-60
2022/07/30 00:54:58;;;;;;;;;;;;;;;24.48;54.80;153811.94;1771856;81;22184;-60
2022/07/30 00:57:26;;;;;;;;;;;;;;;24.47;54.75;153809.33;1772062;81;20175;-59
2022/07/30 00:59:53;;;;;;;;;;;;;;;24.43;54.91;153800.14;1771633;81;20188;-59
2022/07/30 01:02:20;;;;;;;;;;;;;;;24.41;54.97;153793.56;1772150;81;20227;-59
2022/07/30 01:04:48;;;;;;;;;;;;;;;24.40;54.97;153792.28;1768843;81;20229;-59
2022/07/30 01:07:14;;;;;;;;;;;;;;;24.39;55.25;153788.34;1728335;82;21242;-60
2022/07/30 01:09:42;;;;;;;;;;;;;;;24.37;55.74;153784.44;1727027;83;20472;-59
2022/07/30 01:12:09;;;;;;;;;;;;;;;24.39;56.25;153788.34;1739191;82;20170;-58
2022/07/30 01:14:36;;;;;;;;;;;;;;;24.43;56.58;153798.86;1762037;81;20153;-79
2022/07/30 01:17:03;;;;;;;;;;;;;;;24.43;56.61;153798.86;1761781;81;20168;-78
2022/07/30 01:19:54;;;;;;;;;;;;;;;24.39;56.49;153789.67;1761767;81;20202;-78
2022/07/30 01:22:34;;;;;;;;;;;;;;;24.34;56.67;153775.25;1760492;81;20197;-59
2022/07/30 01:25:29;;;;;;;;;;;;;;;24.27;57.42;153759.56;1792973;80;20199;-60
2022/07/30 01:28:09;;;;;;;;;;;;;;;24.23;58.00;153749.09;1793403;80;20135;-60
2022/07/30 01:30:39;;;;;;;;;;;;;;;24.18;58.31;153735.95;1792121;80;20496;-78
2022/07/30 01:33:10;;;;;;;;;;;;;;;24.16;58.45;153730.72;1793075;80;21227;-77
2022/07/30 01:35:37;;;;;;;;;;;;;;;24.15;58.34;153728.11;1793179;79;20163;-78
2022/07/30 01:38:05;;;;;;;;;;;;;;;24.16;57.59;153732.06;1764697;80;20484;-78
2022/07/30 01:40:31;;;;;;;;;;;;;;;24.15;57.65;153729.44;1792980;79;20423;-77
2022/07/30 01:42:59;;;;;;;;;;;;;;;24.15;57.99;153728.11;1793118;80;20191;-78
2022/07/30 01:45:28;;;;;;;;;;;;;;;24.14;58.42;153726.83;1793332;80;20436;-77
2022/07/30 01:47:57;;;;;;;;;;;;;;;24.14;58.37;153725.50;1793106;79;20497;-77
2022/07/30 01:50:24;;;;;;;;;;;;;;;24.10;57.33;153716.36;1793431;80;20131;-77
2022/07/30 01:52:52;;;;;;;;;;;;;;;24.07;56.11;153707.19;1793014;80;20226;-77
2022/07/30 01:55:29;;;;;;;;;;;;;;;24.02;55.59;153696.72;1793151;80;20175;-77
2022/07/30 01:57:56;;;;;;;;;;;;;;;23.95;54.76;153677.03;1792680;80;21214;-78
2022/07/30 02:00:26;;;;;;;;;;;;;;;23.88;54.91;153659.98;1792943;80;20159;-78
2022/07/30 02:02:53;;;;;;;;;;;;;;;23.85;54.51;153653.42;1793120;80;20179;-78
2022/07/30 02:05:20;;;;;;;;;;;;;;;23.85;54.25;153652.14;1778025;80;20200;-78
2022/07/30 02:07:56;;;;;;;;;;;;;;;23.80;54.03;153640.34;1740550;81;20174;-78
2022/07/30 02:10:35;;;;;;;;;;;;;;;23.78;53.92;153633.83;1735990;80;21301;-77
2022/07/30 02:13:04;;;;;;;;;;;;;;;23.78;53.65;153633.83;1788987;80;20199;-77
2022/07/30 02:15:42;;;;;;;;;;;;;;;23.77;53.63;153632.50;1789394;80;20222;-77
2022/07/30 02:18:19;;;;;;;;;;;;;;;23.69;53.83;153612.86;1771447;80;20075;-77
2022/07/30 02:20:53;;;;;;;;;;;;;;;23.61;54.60;153591.94;1739834;82;20154;-76
2022/07/30 02:23:20;;;;;;;;;;;;;;;23.58;55.28;153585.37;1739871;82;21204;-77
2022/07/30 02:25:49;;;;;;;;;;;;;;;23.57;56.25;153581.47;1739602;81;20187;-77
2022/07/30 02:28:18;;;;;;;;;;;;;;;23.58;57.15;153584.09;1740000;82;20152;-76
2022/07/30 02:30:48;;;;;;;;;;;;;;;23.55;57.95;153576.23;1740126;81;20187;-76
2022/07/30 02:33:15;;;;;;;;;;;;;;;23.51;58.75;153567.06;1739917;82;20176;-76
2022/07/30 02:35:44;;;;;;;;;;;;;;;23.49;59.31;153560.50;1740006;81;20572;-76
2022/07/30 02:38:12;;;;;;;;;;;;;;;23.45;60.16;153552.66;1739930;82;20234;-76
2022/07/30 02:40:41;;;;;;;;;;;;;;;23.48;60.54;153559.22;1739821;82;20194;-76
2022/07/30 02:43:09;;;;;;;;;;;;;;;23.46;60.77;153555.27;1739843;82;20135;-76
2022/07/30 02:45:36;;;;;;;;;;;;;;;23.42;61.59;153544.81;1739961;81;20196;-76
2022/07/30 02:48:09;;;;;;;;;;;;;;;23.43;62.54;153547.42;1739744;81;21002;-76
2022/07/30 02:50:34;;;;;;;;;;;;;;;23.44;63.79;153550.03;1738957;81;20154;-75
2022/07/30 02:53:01;;;;;;;;;;;;;;;23.44;64.98;153548.75;1739820;82;20166;-76
2022/07/30 02:55:29;;;;;;;;;;;;;;;23.45;65.88;153552.66;1740137;82;20150;-76
2022/07/30 02:57:57;;;;;;;;;;;;;;;23.47;66.04;153556.59;1739589;82;20162;-76
2022/07/30 03:00:26;;;;;;;;;;;;;;;23.49;65.79;153560.50;1739342;81;21140;-76
2022/07/30 03:02:53;;;;;;;;;;;;;;;23.45;65.63;153552.66;1739497;81;20204;-76
2022/07/30 03:05:20;;;;;;;;;;;;;;;23.43;65.93;153546.09;1753083;81;20283;-76
2022/07/30 03:07:47;;;;;;;;;;;;;;;23.44;65.81;153548.75;1776070;80;20195;-76
2022/07/30 03:10:15;;;;;;;;;;;;;;;23.48;66.03;153557.88;1781401;80;20448;-75
2022/07/30 03:12:44;;;;;;;;;;;;;;;23.52;66.05;153568.34;1750403;82;20187;-76
2022/07/30 03:15:12;;;;;;;;;;;;;;;23.58;66.07;153584.09;1715002;83;20346;-76
2022/07/30 03:17:47;;;;;;;;;;;;;;;23.63;66.35;153595.83;1721591;81;20174;-77
2022/07/30 03:20:16;;;;;;;;;;;;;;;23.66;66.55;153605.02;1756227;81;20133;-76
2022/07/30 03:22:47;;;;;;;;;;;;;;;23.73;66.66;153623.31;1781581;80;20429;-76
2022/07/30 03:25:15;;;;;;;;;;;;;;;23.79;66.87;153636.45;1781466;80;21133;-76
2022/07/30 03:27:42;;;;;;;;;;;;;;;23.80;66.59;153639.06;1781467;80;20270;-76
2022/07/30 03:30:10;;;;;;;;;;;;;;;23.80;66.00;153639.06;1781243;80;20132;-76
2022/07/30 03:32:36;;;;;;;;;;;;;;;23.83;65.34;153646.91;1781464;80;20171;-60
2022/07/30 03:35:06;;;;;;;;;;;;;;;23.80;65.12;153639.06;1781310;80;20224;-60
2022/07/30 03:37:34;;;;;;;;;;;;;;;23.74;65.12;153625.94;1781847;80;21748;-60
2022/07/30 03:40:04;;;;;;;;;;;;;;;23.71;65.45;153618.09;1781207;80;20448;-59
2022/07/30 03:42:32;;;;;;;;;;;;;;;23.71;65.79;153618.09;1781541;80;20247;-60
2022/07/30 03:45:02;;;;;;;;;;;;;;;23.72;66.06;153620.70;1781204;80;20192;-60
2022/07/30 03:47:32;;;;;;;;;;;;;;;23.71;66.25;153618.09;1781414;80;20215;-60
2022/07/30 03:50:00;;;;;;;;;;;;;;;23.71;66.76;153618.09;1780929;80;21793;-59
2022/07/30 03:52:31;;;;;;;;;;;;;;;23.70;67.28;153615.47;1781618;80;20425;-59
2022/07/30 03:54:59;;;;;;;;;;;;;;;23.67;67.85;153607.62;1781347;80;20179;-60
2022/07/30 03:57:31;;;;;;;;;;;;;;;23.64;68.43;153599.78;1723739;80;20178;-59
2022/07/30 03:59:58;;;;;;;;;;;;;;;23.64;69.09;153598.44;1781288;80;20456;-59
2022/07/30 04:02:26;;;;;;;;;;;;;;;23.67;69.60;153607.62;1781220;80;21295;-59
2022/07/30 04:04:55;;;;;;;;;;;;;;;23.71;69.24;153616.81;1765847;80;20171;-59
2022/07/30 04:07:23;;;;;;;;;;;;;;;23.67;68.38;153607.62;1735346;81;20489;-58
2022/07/30 04:09:50;;;;;;;;;;;;;;;23.66;67.91;153605.02;1740915;81;20475;-59
2022/07/30 04:12:25;;;;;;;;;;;;;;;23.69;67.66;153612.86;1783733;80;20295;-59
2022/07/30 04:14:56;;;;;;;;;;;;;;;23.77;67.60;153631.22;1789751;80;20409;-59
2022/07/30 04:17:47;;;;;;;;;;;;;;;23.81;67.07;153641.69;1789240;80;20455;-60
2022/07/30 04:20:16;;;;;;;;;;;;;;;23.88;66.87;153659.98;1772038;80;20169;-59
2022/07/30 04:22:45;;;;;;;;;;;;;;;23.94;65.83;153675.69;1771743;80;20463;-60
2022/07/30 04:25:11;;;;;;;;;;;;;;;23.95;65.50;153678.31;1772323;80;20105;-77
2022/07/30 04:27:39;;;;;;;;;;;;;;;24.02;65.49;153695.38;1771807;81;21239;-78
2022/07/30 04:30:07;;;;;;;;;;;;;;;24.13;65.06;153722.88;1772211;81;20440;-78
2022/07/30 04:32:36;;;;;;;;;;;;;;;24.26;64.78;153756.94;1771939;81;20432;-77
2022/07/30 04:35:29;;;;;;;;;;;;;;;24.40;64.23;153790.95;1771302;80;20498;-78
2022/07/30 04:38:02;;;;;;;;;;;;;;;24.48;63.86;153811.94;1747621;81;20200;-78
2022/07/30 04:40:30;;;;;;;;;;;;;;;24.59;63.87;153840.72;1771205;80;21144;-77
2022/07/30 04:42:57;;;;;;;;;;;;;;;24.70;63.89;153866.95;1771146;81;20209;-77
2022/07/30 04:45:26;;;;;;;;;;;;;;;24.82;63.34;153898.41;1771739;80;20271;-78
2022/07/30 04:47:57;;;;;;;;;;;;;;;24.86;63.19;153908.88;1771683;80;20152;-77
2022/07/30 04:50:45;;;;;;;;;;;;;;;24.97;63.03;153936.38;1772023;80;20195;-76
2022/07/30 04:53:14;;;;;;;;;;;;;;;25.06;62.99;153957.38;1771927;80;20172;-78
2022/07/30 04:55:44;;;;;;;;;;;;;;;25.16;63.11;153984.88;1771198;81;20251;-79
2022/07/30 04:58:13;;;;;;;;;;;;;;;25.33;62.55;154026.83;1772036;80;20212;-79
2022/07/30 05:00:40;;;;;;;;;;;;;;;25.45;61.59;154058.25;1772133;81;20176;-78
2022/07/30 05:03:08;;;;;;;;;;;;;;;25.56;60.79;154084.53;1771877;81;20180;-78
2022/07/30 05:05:35;;;;;;;;;;;;;;;25.60;60.54;154095.00;1755481;81;21109;-78
2022/07/30 05:08:03;;;;;;;;;;;;;;;25.56;60.56;154084.53;1749618;82;20173;-78
2022/07/30 05:10:32;;;;;;;;;;;;;;;25.53;59.51;154076.63;1745778;82;20134;-78
2022/07/30 05:13:01;;;;;;;;;;;;;;;25.46;58.83;154059.58;1750430;82;20166;-77
2022/07/30 05:15:30;;;;;;;;;;;;;;;25.37;58.92;154037.30;1751047;81;20411;-77
2022/07/30 05:17:58;;;;;;;;;;;;;;;25.35;59.36;154032.06;1761408;80;21200;-77
2022/07/30 05:20:25;;;;;;;;;;;;;;;25.35;59.72;154032.06;1789152;80;20172;-78
2022/07/30 05:23:07;;;;;;;;;;;;;;;25.30;60.34;154018.92;1788110;80;20327;-78
2022/07/30 05:25:35;;;;;;;;;;;;;;;25.27;60.69;154011.06;1789427;80;20438;-77
2022/07/30 05:28:07;;;;;;;;;;;;;;;25.27;61.04;154011.06;1787383;80;20262;-78
2022/07/30 05:30:36;;;;;;;;;;;;;;;25.28;60.39;154013.69;1754138;80;21234;-78
2022/07/30 05:33:03;;;;;;;;;;;;;;;25.31;60.36;154021.53;1788905;80;20164;-77
2022/07/30 05:35:30;;;;;;;;;;;;;;;25.35;60.58;154032.06;1789313;80;20175;-78
2022/07/30 05:37:59;;;;;;;;;;;;;;;25.35;60.85;154032.06;1788993;80;20562;-78
2022/07/30 05:40:27;;;;;;;;;;;;;;;25.42;60.66;154050.39;1790051;80;20460;-77
2022/07/30 05:43:01;;;;;;;;;;;;;;;25.48;60.69;154063.53;1730596;80;20127;-77
2022/07/30 05:45:28;;;;;;;;;;;;;;;25.54;60.39;154079.28;1789559;80;20405;-77
2022/07/30 05:47:55;;;;;;;;;;;;;;;25.62;60.30;154100.23;1789076;80;20179;-78
2022/07/30 05:50:23;;;;;;;;;;;;;;;25.80;59.50;154146.09;1789259;80;20455;-78
2022/07/30 05:52:50;;;;;;;;;;;;;;;25.90;58.67;154171.00;1789011;80;20246;-78
2022/07/30 05:55:35;;;;;;;;;;;;;;;26.01;58.50;154199.84;1789290;80;21072;-78
2022/07/30 05:58:07;;;;;;;;;;;;;;;26.11;58.79;154223.42;1787023;80;20123;-60
2022/07/30 06:00:34;;;;;;;;;;;;;;;26.09;58.18;154219.52;1789127;80;20203;-60
2022/07/30 06:03:01;;;;;;;;;;;;;;;25.98;58.06;154192.00;1789074;80;20203;-59
2022/07/30 06:05:31;;;;;;;;;;;;;;;25.90;57.65;154171.00;1769927;80;20169;-59
2022/07/30 06:07:59;;;;;;;;;;;;;;;25.83;57.47;154152.66;1748340;81;21230;-59
2022/07/30 06:10:27;;;;;;;;;;;;;;;25.74;57.89;154130.38;1739925;81;20415;-59
2022/07/30 06:12:54;;;;;;;;;;;;;;;25.66;58.04;154109.42;1750231;82;20184;-59
2022/07/30 06:15:23;;;;;;;;;;;;;;;25.57;58.30;154087.14;1750429;82;20148;-60
2022/07/30 06:17:51;;;;;;;;;;;;;;;25.54;57.60;154079.28;1749738;82;20226;-59
2022/07/30 06:20:20;;;;;;;;;;;;;;;25.42;57.39;154050.39;1747884;82;21100;-58
2022/07/30 06:22:59;;;;;;;;;;;;;;;25.30;58.46;154018.92;1681104;82;20211;-60
2022/07/30 06:25:29;;;;;;;;;;;;;;;25.26;59.03;154008.45;1747976;81;20182;-60
2022/07/30 06:27:57;;;;;;;;;;;;;;;25.26;59.71;154008.45;1748135;81;20169;-60
2022/07/30 06:30:27;;;;;;;;;;;;;;;25.20;60.26;153994.06;1748095;81;20150;-59
2022/07/30 06:32:55;;;;;;;;;;;;;;;25.16;61.04;153984.88;1748054;82;21220;-60
2022/07/30 06:35:23;;;;;;;;;;;;;;;25.13;61.16;153977.03;1748390;82;20130;-59
2022/07/30 06:37:50;;;;;;;;;;;;;;;25.09;60.56;153966.56;1747838;82;20898;-59
2022/07/30 06:40:18;;;;;;;;;;;;;;;25.05;60.29;153956.03;1748031;82;20119;-59
2022/07/30 06:42:56;;;;;;;;;;;;;;;24.98;60.69;153937.72;1747166;82;20198;-59
2022/07/30 06:45:32;;;;;;;;;;;;;;;24.97;61.23;153935.09;1748077;82;21245;-60
2022/07/30 06:48:11;;;;;;;;;;;;;;;24.95;60.96;153929.86;1725448;82;20166;-60
2022/07/30 06:50:38;;;;;;;;;;;;;;;24.94;61.19;153928.53;1747680;82;20206;-60
2022/07/30 06:53:06;;;;;;;;;;;;;;;24.96;61.62;153933.77;1747559;81;20478;-60
2022/07/30 06:55:51;;;;;;;;;;;;;;;24.99;61.97;153940.33;1747394;82;20198;-60
2022/07/30 06:58:19;;;;;;;;;;;;;;;24.98;62.11;153937.72;1747754;82;21192;-59
2022/07/30 07:01:04;;;;;;;;;;;;;;;24.94;62.49;153928.53;1747638;82;20418;-59
2022/07/30 07:03:33;;;;;;;;;;;;;;;24.99;62.67;153940.33;1747544;82;20166;-60
2022/07/30 07:06:00;;;;;;;;;;;;;;;25.07;63.07;153961.28;1747814;82;21037;-60
2022/07/30 07:08:27;;;;;;;;;;;;;;;25.08;63.38;153963.89;1745383;82;20180;-59
2022/07/30 07:10:56;;;;;;;;;;;;;;;25.14;63.58;153978.31;1752417;81;21243;-59
2022/07/30 07:13:29;;;;;;;;;;;;;;;25.18;63.65;153990.13;1770869;81;20124;-59
2022/07/30 07:15:56;;;;;;;;;;;;;;;25.25;64.10;154005.83;1749036;81;20175;-60
2022/07/30 07:18:24;;;;;;;;;;;;;;;25.30;64.25;154020.25;1757109;81;20127;-59
2022/07/30 07:20:56;;;;;;;;;;;;;;;25.47;64.36;154062.25;1739465;82;20501;-59
2022/07/30 07:23:23;;;;;;;;;;;;;;;25.73;63.45;154127.75;1739790;82;21306;-59
2022/07/30 07:25:54;;;;;;;;;;;;;;;25.91;62.10;154173.61;1739481;82;20141;-59
2022/07/30 07:28:21;;;;;;;;;;;;;;;26.03;61.37;154205.09;1739824;81;20237;-60
2022/07/30 07:30:49;;;;;;;;;;;;;;;26.11;60.84;154223.42;1740044;82;20454;-60
2022/07/30 07:33:16;;;;;;;;;;;;;;;26.18;60.27;154241.81;1739776;82;20158;-60
2022/07/30 07:35:45;;;;;;;;;;;;;;;26.26;59.40;154262.81;1739926;81;20197;-60
2022/07/30 07:38:12;;;;;;;;;;;;;;;26.30;59.23;154273.30;1739676;82;20226;-60
2022/07/30 07:40:40;;;;;;;;;;;;;;;26.39;59.36;154294.25;1739723;82;20252;-59
2022/07/30 07:43:08;;;;;;;;;;;;;;;26.53;59.11;154330.98;1739648;82;20225;-59
2022/07/30 07:45:36;;;;;;;;;;;;;;;26.62;57.71;154351.94;1739765;82;20161;-60
2022/07/30 07:48:06;;;;;;;;;;;;;;;26.65;57.30;154359.84;1739853;82;22022;-59
2022/07/30 07:50:46;;;;;;;;;;;;;;;26.70;56.98;154372.95;1739543;82;20189;-78
2022/07/30 07:53:18;;;;;;;;;;;;;;;26.73;56.93;154380.81;1738515;82;20201;-60
2022/07/30 07:55:45;;;;;;;;;;;;;;;26.74;57.01;154383.44;1739800;82;20545;-60
2022/07/30 07:58:14;;;;;;;;;;;;;;;26.80;56.97;154397.88;1739892;82;20604;-78
2022/07/30 08:00:41;;;;;;;;;;;;;;;26.82;56.58;154403.11;1739939;82;21228;-78
2022/07/30 08:03:09;;;;;;;;;;;;;;;26.80;56.41;154399.16;1739651;81;38351;-78
2022/07/30 08:05:38;;;;;;;;;;;;;;;26.79;56.50;154396.53;1739874;82;20203;-78
2022/07/30 08:08:08;;;;;;;;;;;;;;;26.83;55.79;154407.02;1725818;81;20244;-78
2022/07/30 08:10:54;;;;;;;;;;;;;;;26.80;55.71;154399.16;1758744;81;20496;-79
2022/07/30 08:13:35;;;;;;;;;;;;;;;26.78;56.22;154392.63;1718304;81;21138;-78
2022/07/30 08:16:08;;;;;;;;;;;;;;;26.76;56.34;154388.67;1758668;81;20452;-78
2022/07/30 08:18:45;;;;;;;;;;;;;;;26.80;57.17;154399.16;1743852;81;20396;-78
2022/07/30 08:21:21;;;;;;;;;;;;;;;26.93;57.07;154430.70;1752713;82;20114;-79
2022/07/30 08:23:47;;;;;;;;;;;;;;;27.02;56.91;154454.28;1752433;81;20182;-78
2022/07/30 08:26:14;;;;;;;;;;;;;;;27.10;56.93;154475.30;1752257;81;21249;-78
2022/07/30 08:28:44;;;;;;;;;;;;;;;27.22;56.89;154504.13;1752443;81;20216;-79
2022/07/30 08:31:13;;;;;;;;;;;;;;;27.31;55.44;154527.77;1752912;81;20170;-78
2022/07/30 08:33:41;;;;;;;;;;;;;;;27.36;55.18;154540.88;1753043;81;20465;-78
2022/07/30 08:36:08;;;;;;;;;;;;;;;27.45;55.24;154563.17;1752957;81;20174;-78
2022/07/30 08:38:37;;;;;;;;;;;;;;;27.52;54.92;154580.23;1752707;81;20170;-78
2022/07/30 08:41:04;;;;;;;;;;;;;;;27.54;55.19;154585.53;1753019;82;20166;-79
2022/07/30 08:43:31;;;;;;;;;;;;;;;27.58;55.86;154596.02;1753303;82;20222;-78
2022/07/30 08:45:57;;;;;;;;;;;;;;;27.62;56.21;154606.50;1752921;81;20206;-78
2022/07/30 08:48:26;;;;;;;;;;;;;;;27.62;56.55;154606.50;1751449;82;20182;-79
2022/07/30 08:50:55;;;;;;;;;;;;;;;27.65;56.78;154614.38;1753267;82;21226;-79
2022/07/30 08:53:35;;;;;;;;;;;;;;;27.71;57.12;154628.81;1753341;81;20118;-79
2022/07/30 08:56:05;;;;;;;;;;;;;;;27.82;57.65;154656.36;1753162;81;20427;-77
2022/07/30 08:58:35;;;;;;;;;;;;;;;27.90;57.67;154676.05;1724338;82;20174;-78
2022/07/30 09:01:03;;;;;;;;;;;;;;;27.95;56.97;154690.44;1752780;81;20174;-78
2022/07/30 09:03:30;;;;;;;;;;;;;;;27.94;56.13;154687.83;1753266;82;22140;-78
2022/07/30 09:06:02;;;;;;;;;;;;;;;27.91;56.33;154679.97;1756835;81;20218;-78
2022/07/30 09:08:29;;;;;;;;;;;;;;;27.88;56.42;154672.09;1727212;83;20157;-79
2022/07/30 09:10:56;;;;;;;;;;;;;;;27.90;56.45;154676.05;1708877;84;20242;-79
2022/07/30 09:13:30;;;;;;;;;;;;;;;27.98;56.43;154698.36;1705462;83;20135;-79
2022/07/30 09:15:59;;;;;;;;;;;;;;;28.06;56.36;154716.72;1719475;83;20148;-77
2022/07/30 09:18:29;;;;;;;;;;;;;;;28.12;56.36;154732.45;1733631;82;20198;-78
2022/07/30 09:21:01;;;;;;;;;;;;;;;28.20;55.95;154753.53;1725916;82;20154;-77
2022/07/30 09:23:28;;;;;;;;;;;;;;;28.18;56.09;154748.23;1724601;82;20138;-77
2022/07/30 09:26:15;;;;;;;;;;;;;;;28.22;55.64;154757.44;1663307;85;20251;-78
2022/07/30 09:29:16;;;;;;;;;;;;;;;28.15;55.42;154740.31;1704975;83;21085;-78
2022/07/30 09:32:03;;;;;;;;;;;;;;;28.12;55.38;154732.45;1683730;82;20185;-78
2022/07/30 09:34:50;;;;;;;;;;;;;;;28.14;54.99;154737.69;1770342;80;20539;-77
2022/07/30 09:37:23;;;;;;;;;;;;;;;28.08;54.78;154721.97;1766738;81;20177;-78
2022/07/30 09:39:51;;;;;;;;;;;;;;;28.06;54.88;154716.72;1715686;81;20176;-78
2022/07/30 09:42:27;;;;;;;;;;;;;;;28.03;55.17;154711.47;1769574;81;21930;-78
2022/07/30 09:45:11;;;;;;;;;;;;;;;28.08;55.64;154721.97;1769568;80;20192;-78
2022/07/30 09:47:41;;;;;;;;;;;;;;;28.14;55.14;154739.03;1769980;81;20175;-78
2022/07/30 09:50:13;;;;;;;;;;;;;;;28.17;55.42;154745.61;1769834;80;20200;-77
2022/07/30 09:52:42;;;;;;;;;;;;;;;28.14;55.15;154737.69;1770843;80;20184;-77
2022/07/30 09:55:09;;;;;;;;;;;;;;;28.15;54.81;154740.31;1770284;80;20791;-77
2022/07/30 09:57:55;;;;;;;;;;;;;;;28.16;55.09;154742.98;1770488;81;20168;-77
2022/07/30 10:00:23;;;;;;;;;;;;;;;28.20;55.68;154752.19;1770727;81;20436;-78
2022/07/30 10:02:54;;;;;;;;;;;;;;;28.30;55.63;154779.75;1770556;81;20124;-77
2022/07/30 10:05:53;;;;;;;;;;;;;;;28.40;54.96;154804.69;1744719;81;20214;-77
2022/07/30 10:08:20;;;;;;;;;;;;;;;28.46;55.37;154819.14;1724994;82;21278;-76
2022/07/30 10:10:48;;;;;;;;;;;;;;;28.43;55.54;154811.28;1717810;81;20436;-76
2022/07/30 10:13:15;;;;;;;;;;;;;;;28.31;55.74;154782.37;1739741;81;20172;-76
2022/07/30 10:15:43;;;;;;;;;;;;;;;28.33;55.47;154786.34;1759136;81;20197;-77
2022/07/30 10:18:11;;;;;;;;;;;;;;;28.33;54.82;154785.00;1728576;82;20435;-78
2022/07/30 10:20:49;;;;;;;;;;;;;;;28.33;54.44;154786.34;1711414;82;21237;-79
2022/07/30 10:23:37;;;;;;;;;;;;;;;28.34;54.31;154787.62;1729558;82;20125;-79
2022/07/30 10:26:20;;;;;;;;;;;;;;;28.40;53.17;154803.36;1679959;85;20129;-78
2022/07/30 10:29:07;;;;;;;;;;;;;;;28.45;53.19;154816.52;1633132;86;20542;-79
2022/07/30 10:31:34;;;;;;;;;;;;;;;28.43;52.75;154811.28;1649928;87;20210;-79
2022/07/30 10:34:02;;;;;;;;;;;;;;;28.46;53.41;154819.14;1677743;83;21315;-79
2022/07/30 10:36:28;;;;;;;;;;;;;;;28.49;52.38;154827.00;1760010;81;20129;-77
2022/07/30 10:38:55;;;;;;;;;;;;;;;28.51;52.57;154832.25;1759139;81;20137;-78
2022/07/30 10:41:38;;;;;;;;;;;;;;;28.59;51.71;154853.23;1759250;81;20173;-79
2022/07/30 10:44:25;;;;;;;;;;;;;;;28.64;50.78;154863.78;1759028;81;20197;-78
2022/07/30 10:46:56;;;;;;;;;;;;;;;28.66;50.10;154869.03;1758996;81;21123;-60
2022/07/30 10:49:24;;;;;;;;;;;;;;;28.73;49.47;154888.67;1758862;81;20118;-60
2022/07/30 10:51:53;;;;;;;;;;;;;;;28.82;48.16;154909.75;1759167;81;20930;-61
2022/07/30 10:54:36;;;;;;;;;;;;;;;28.91;46.42;154932.08;1759134;81;20157;-60
2022/07/30 10:57:10;;;;;;;;;;;;;;;28.93;46.32;154937.33;1758917;81;20202;-60
2022/07/30 11:00:00;;;;;;;;;;;;;;;28.87;46.82;154924.22;1759374;81;20133;-60
2022/07/30 11:02:28;;;;;;;;;;;;;;;28.80;47.14;154905.80;1759013;81;21053;-60
2022/07/30 11:05:19;;;;;;;;;;;;;;;28.70;46.49;154879.52;1762447;81;20176;-61
2022/07/30 11:07:46;;;;;;;;;;;;;;;28.56;47.33;154845.38;1758666;81;20509;-60
2022/07/30 11:10:36;;;;;;;;;;;;;;;28.46;47.47;154819.14;1746870;81;20199;-60
2022/07/30 11:13:04;;;;;;;;;;;;;;;28.43;47.73;154811.28;1747848;81;21227;-60
2022/07/30 11:15:58;;;;;;;;;;;;;;;28.41;47.92;154806.03;1747978;82;20130;-60
2022/07/30 11:18:26;;;;;;;;;;;;;;;28.43;48.04;154811.28;1709625;83;20200;-60
2022/07/30 11:21:15;;;;;;;;;;;;;;;28.55;47.92;154842.75;1755309;81;20609;-60
2022/07/30 11:23:45;;;;;;;;;;;;;;;28.63;46.92;154861.11;1770319;81;20132;-60
2022/07/30 11:26:42;;;;;;;;;;;;;;;28.68;46.38;154874.27;1770228;81;21278;-60
2022/07/30 11:29:42;;;;;;;;;;;;;;;28.79;45.74;154903.17;1770442;81;20172;-60
2022/07/30 11:32:24;;;;;;;;;;;;;;;28.98;45.08;154950.44;1770064;81;20193;-59
2022/07/30 11:34:52;;;;;;;;;;;;;;;29.19;44.15;155002.97;1770421;81;20832;-60
2022/07/30 11:37:19;;;;;;;;;;;;;;;29.37;43.22;155050.25;1770379;80;20120;-59
2022/07/30 11:39:58;;;;;;;;;;;;;;;29.56;42.45;155097.58;1770333;81;21238;-60
2022/07/30 11:42:29;;;;;;;;;;;;;;;29.76;41.55;155147.50;1770556;80;20186;-59
2022/07/30 11:45:18;;;;;;;;;;;;;;;29.92;41.00;155189.48;1770468;81;20211;-61
2022/07/30 11:47:48;;;;;;;;;;;;;;;30.05;40.15;155222.38;1766588;81;20307;-61
2022/07/30 11:50:26;;;;;;;;;;;;;;;30.16;39.67;155249.95;1770397;81;20172;-61
2022/07/30 11:52:56;;;;;;;;;;;;;;;30.18;39.52;155255.25;1770543;81;21142;-61
2022/07/30 11:55:31;;;;;;;;;;;;;;;30.24;38.73;155271.00;1770203;81;20184;-61
2022/07/30 11:57:58;;;;;;;;;;;;;;;30.27;38.42;155278.88;1770064;81;20517;-60
2022/07/30 12:00:27;;;;;;;;;;;;;;;30.29;38.34;155284.13;1770176;81;20158;-60
2022/07/30 12:02:54;;;;;;;;;;;;;;;30.32;38.39;155289.38;1769456;81;20204;-60
2022/07/30 12:05:24;;;;;;;;;;;;;;;30.39;38.04;155309.09;1756046;81;21724;-59
2022/07/30 12:07:51;;;;;;;;;;;;;;;30.44;37.79;155320.94;1731699;83;20164;-60
2022/07/30 12:10:20;;;;;;;;;;;;;;;30.50;37.52;155336.69;1734924;82;20154;-59
2022/07/30 12:12:48;;;;;;;;;;;;;;;30.59;37.48;155360.31;1712772;82;20136;-59
2022/07/30 12:15:30;;;;;;;;;;;;;;;30.67;37.32;155378.80;1712341;83;20181;-59
2022/07/30 12:17:57;;;;;;;;;;;;;;;30.71;37.45;155389.30;1724083;81;21143;-60
2022/07/30 12:20:24;;;;;;;;;;;;;;;30.76;37.29;155402.44;1757216;81;20427;-60
2022/07/30 12:22:51;;;;;;;;;;;;;;;30.78;37.08;155407.69;1756876;81;20181;-60
2022/07/30 12:25:18;;;;;;;;;;;;;;;30.79;36.97;155410.31;1757039;81;20198;-60
2022/07/30 12:27:47;;;;;;;;;;;;;;;30.75;36.82;155398.52;1756843;81;20249;-60
2022/07/30 12:30:14;;;;;;;;;;;;;;;30.69;36.98;155384.05;1757121;81;21131;-60
2022/07/30 12:32:43;;;;;;;;;;;;;;;30.69;36.99;155385.34;1757186;81;20617;-60
2022/07/30 12:35:11;;;;;;;;;;;;;;;30.76;36.80;155401.14;1757095;81;20527;-60
2022/07/30 12:37:38;;;;;;;;;;;;;;;30.77;36.56;155405.06;1757391;81;20110;-77
2022/07/30 12:40:12;;;;;;;;;;;;;;;30.76;36.75;155402.44;1757310;81;20198;-77
2022/07/30 12:42:54;;;;;;;;;;;;;;;30.87;36.56;155430.03;1757439;81;20149;-77
2022/07/30 12:45:31;;;;;;;;;;;;;;;30.89;36.22;155435.28;1756334;81;20565;-76
2022/07/30 12:47:58;;;;;;;;;;;;;;;30.91;36.16;155440.53;1757191;81;20193;-76
2022/07/30 12:50:26;;;;;;;;;;;;;;;30.93;36.02;155445.78;1757424;81;20138;-76
2022/07/30 12:52:54;;;;;;;;;;;;;;;31.00;36.23;155462.88;1757297;81;20178;-76
2022/07/30 12:55:32;;;;;;;;;;;;;;;31.08;35.71;155483.94;1757361;81;21230;-77